Byhalia, MS

1:29 AM CST on December 28, 2014 (GMT -0600)
West Memphis Municipal | Change Station
CLOSE
Current Station
Airport
Location: West Memphis,
Elevation: 213 ft
Nearby Weather Stations

Elev 213 ft 35.14 °N, 90.23 °W | Updated 36 minutes ago

Overcast
Overcast
43 °F
Feels Like 37 °F
N
12
Wind Variable Wind from North
Gusts 21 mph

Today
High -- | Low -- °F
--% Chance of Precip.
Yesterday
High -- | Low -- °F
Precip. -- in
7:05 AM 4:55 PM
Waxing Crescent, 45% visible
Pressure 30.14 in
Visibility 4.0 miles
Clouds Overcast 500 ft
Windchill 37 °F
Dew Point 43 °F
Humidity 100%
Rainfall 0.01 in
Snow Depth Not available.
UV 0 out of 12
Pollen .10 out of 12
Air Quality Not available.
Flu Activity Not available.
METAR KAWM 280653Z AUTO 36010G18KT 4SM BR OVC005 06/06 A3013 RMK AO2 RAB0558E12 CIG 004V009 SLP204 P0001 T00610061 $

More Conditions Fewer Conditions

Pressure 30.14 in
Visibility 4.0 miles
Clouds Overcast 500 ft
Windchill 37 °F
Dew Point 43 °F
Humidity 100%
Rainfall 0.01 in
Snow Depth Not available.
UV 0 out of 12
Pollen .10 out of 12
Air Quality Not available.
Flu Activity Not available.
METAR KAWM 280653Z AUTO 36010G18KT 4SM BR OVC005 06/06 A3013 RMK AO2 RAB0558E12 CIG 004V009 SLP204 P0001 T00610061 $

More Conditions Fewer Conditions

10-Day Weather Forecast

Almanac

Astronomy

Dec. 28, 2014 Rise Set
Actual Time
Civil Twilight
Nautical Twilight
Astronomical Twilight
Moon
Length of Visible Light
Length of Day
Tomorrow will be .
, % of the Moon is Illuminated

Today's Extremes

State Highs State Lows

Community

WunderPhotos

Upload Photos

1,781,210 photos uploaded!

WunderBlogs® & News

Nearby

Air Quality

  Air Quality AQ Index Pollutant
Not available.

Snow Depth

Station Depth Elevation

Earthquake Activity

City Distance Mag. Time & Date
Minimum magnitude displayed is 2.5.

Coastal Water Temperatures

Place Temperature

Nearby Weather Stations